sensor_id;sensor_type;location;lat;lon;timestamp;temperature;humidity
2571;DHT22;1295;51.130;6.732;2023-02-15T00:00:00;9.40;99.90
2571;DHT22;1295;51.130;6.732;2023-02-15T00:02:26;9.40;99.90
2571;DHT22;1295;51.130;6.732;2023-02-15T00:04:52;9.30;99.90
2571;DHT22;1295;51.130;6.732;2023-02-15T00:07:18;9.40;99.90
2571;DHT22;1295;51.130;6.732;2023-02-15T00:09:44;9.50;99.90
2571;DHT22;1295;51.130;6.732;2023-02-15T00:12:09;9.00;99.90
2571;DHT22;1295;51.130;6.732;2023-02-15T00:14:35;9.00;99.90
2571;DHT22;1295;51.130;6.732;2023-02-15T00:17:00;9.20;99.90
2571;DHT22;1295;51.130;6.732;2023-02-15T00:19:32;9.10;99.90
2571;DHT22;1295;51.130;6.732;2023-02-15T00:22:07;9.10;99.90
2571;DHT22;1295;51.130;6.732;2023-02-15T00:24:33;9.00;99.90
2571;DHT22;1295;51.130;6.732;2023-02-15T00:26:59;9.20;99.90
2571;DHT22;1295;51.130;6.732;2023-02-15T00:29:24;9.20;99.90
2571;DHT22;1295;51.130;6.732;2023-02-15T00:31:50;9.00;99.90
2571;DHT22;1295;51.130;6.732;2023-02-15T00:34:18;8.80;99.90
2571;DHT22;1295;51.130;6.732;2023-02-15T00:36:42;9.10;99.90
2571;DHT22;1295;51.130;6.732;2023-02-15T00:39:09;9.10;99.90
2571;DHT22;1295;51.130;6.732;2023-02-15T00:41:34;9.10;99.90
2571;DHT22;1295;51.130;6.732;2023-02-15T00:44:00;8.70;99.90
2571;DHT22;1295;51.130;6.732;2023-02-15T00:46:26;9.10;99.90
2571;DHT22;1295;51.130;6.732;2023-02-15T00:48:51;9.00;99.90
2571;DHT22;1295;51.130;6.732;2023-02-15T00:51:17;9.10;99.90
2571;DHT22;1295;51.130;6.732;2023-02-15T00:53:43;9.10;99.90
2571;DHT22;1295;51.130;6.732;2023-02-15T00:56:08;8.90;99.90
2571;DHT22;1295;51.130;6.732;2023-02-15T00:58:34;9.00;99.90
2571;DHT22;1295;51.130;6.732;2023-02-15T01:01:03;9.10;99.90
2571;DHT22;1295;51.130;6.732;2023-02-15T01:03:27;8.80;99.90
2571;DHT22;1295;51.130;6.732;2023-02-15T01:05:52;8.80;99.90
2571;DHT22;1295;51.130;6.732;2023-02-15T01:08:18;8.90;99.90
2571;DHT22;1295;51.130;6.732;2023-02-15T01:10:44;8.70;99.90
2571;DHT22;1295;51.130;6.732;2023-02-15T01:13:10;8.60;99.90
2571;DHT22;1295;51.130;6.732;2023-02-15T01:15:36;8.30;99.90
2571;DHT22;1295;51.130;6.732;2023-02-15T01:18:02;8.30;99.90
2571;DHT22;1295;51.130;6.732;2023-02-15T01:20:28;8.40;99.90
2571;DHT22;1295;51.130;6.732;2023-02-15T01:22:54;8.30;99.90
2571;DHT22;1295;51.130;6.732;2023-02-15T01:25:20;8.30;99.90
2571;DHT22;1295;51.130;6.732;2023-02-15T01:27:46;8.80;99.90
2571;DHT22;1295;51.130;6.732;2023-02-15T01:30:12;8.70;99.90
2571;DHT22;1295;51.130;6.732;2023-02-15T01:32:38;8.60;99.90
2571;DHT22;1295;51.130;6.732;2023-02-15T01:35:05;8.60;99.90
2571;DHT22;1295;51.130;6.732;2023-02-15T01:37:31;8.50;99.90
2571;DHT22;1295;51.130;6.732;2023-02-15T01:39:57;8.70;99.90
2571;DHT22;1295;51.130;6.732;2023-02-15T01:42:28;8.70;99.90
2571;DHT22;1295;51.130;6.732;2023-02-15T01:45:05;8.90;99.90
2571;DHT22;1295;51.130;6.732;2023-02-15T01:47:45;8.80;99.90
2571;DHT22;1295;51.130;6.732;2023-02-15T01:50:16;8.60;99.90
2571;DHT22;1295;51.130;6.732;2023-02-15T01:52:49;8.60;99.90
2571;DHT22;1295;51.130;6.732;2023-02-15T01:55:12;7.70;99.90
2571;DHT22;1295;51.130;6.732;2023-02-15T01:57:38;7.70;99.90
2571;DHT22;1295;51.130;6.732;2023-02-15T02:00:05;8.40;99.90
2571;DHT22;1295;51.130;6.732;2023-02-15T02:02:31;8.60;99.90
2571;DHT22;1295;51.130;6.732;2023-02-15T02:04:58;8.30;99.90
2571;DHT22;1295;51.130;6.732;2023-02-15T02:07:23;8.40;99.90
2571;DHT22;1295;51.130;6.732;2023-02-15T02:09:48;8.50;99.90
2571;DHT22;1295;51.130;6.732;2023-02-15T02:12:15;8.40;99.90
2571;DHT22;1295;51.130;6.732;2023-02-15T02:14:40;8.40;99.90
2571;DHT22;1295;51.130;6.732;2023-02-15T02:17:22;8.50;99.90
2571;DHT22;1295;51.130;6.732;2023-02-15T02:20:36;8.70;99.90
2571;DHT22;1295;51.130;6.732;2023-02-15T02:22:44;8.60;99.90
2571;DHT22;1295;51.130;6.732;2023-02-15T02:30:34;8.60;99.90
2571;DHT22;1295;51.130;6.732;2023-02-15T02:33:07;8.60;99.90
2571;DHT22;1295;51.130;6.732;2023-02-15T02:35:38;8.70;99.90
2571;DHT22;1295;51.130;6.732;2023-02-15T02:38:06;8.60;99.90
2571;DHT22;1295;51.130;6.732;2023-02-15T02:40:43;8.60;99.90
2571;DHT22;1295;51.130;6.732;2023-02-15T02:43:07;8.40;99.90
2571;DHT22;1295;51.130;6.732;2023-02-15T02:45:34;8.50;99.90
2571;DHT22;1295;51.130;6.732;2023-02-15T02:48:00;8.50;99.90
2571;DHT22;1295;51.130;6.732;2023-02-15T02:50:26;8.60;99.90
2571;DHT22;1295;51.130;6.732;2023-02-15T02:52:53;8.50;99.90
2571;DHT22;1295;51.130;6.732;2023-02-15T02:55:25;8.40;99.90
2571;DHT22;1295;51.130;6.732;2023-02-15T02:57:54;8.40;99.90
2571;DHT22;1295;51.130;6.732;2023-02-15T03:00:19;8.40;99.90
2571;DHT22;1295;51.130;6.732;2023-02-15T03:02:45;8.50;99.90
2571;DHT22;1295;51.130;6.732;2023-02-15T03:05:12;8.50;99.90
2571;DHT22;1295;51.130;6.732;2023-02-15T03:07:36;8.50;99.90
2571;DHT22;1295;51.130;6.732;2023-02-15T03:10:02;8.40;99.90
2571;DHT22;1295;51.130;6.732;2023-02-15T03:12:29;8.40;99.90
2571;DHT22;1295;51.130;6.732;2023-02-15T03:14:55;8.40;99.90
2571;DHT22;1295;51.130;6.732;2023-02-15T03:17:20;6.60;99.90
2571;DHT22;1295;51.130;6.732;2023-02-15T03:19:45;7.80;99.90
2571;DHT22;1295;51.130;6.732;2023-02-15T03:22:28;8.10;99.90
2571;DHT22;1295;51.130;6.732;2023-02-15T03:25:02;8.30;99.90
2571;DHT22;1295;51.130;6.732;2023-02-15T03:27:27;8.30;99.90
2571;DHT22;1295;51.130;6.732;2023-02-15T03:29:53;8.10;99.90
2571;DHT22;1295;51.130;6.732;2023-02-15T03:32:18;8.00;99.90
2571;DHT22;1295;51.130;6.732;2023-02-15T03:34:45;7.80;99.90
2571;DHT22;1295;51.130;6.732;2023-02-15T03:37:13;7.80;99.90
2571;DHT22;1295;51.130;6.732;2023-02-15T03:39:42;8.10;99.90
2571;DHT22;1295;51.130;6.732;2023-02-15T03:42:18;8.10;99.90
2571;DHT22;1295;51.130;6.732;2023-02-15T03:44:49;7.80;99.90
2571;DHT22;1295;51.130;6.732;2023-02-15T03:47:13;7.70;99.90
2571;DHT22;1295;51.130;6.732;2023-02-15T03:49:40;7.50;99.90
2571;DHT22;1295;51.130;6.732;2023-02-15T03:52:05;7.70;99.90
2571;DHT22;1295;51.130;6.732;2023-02-15T03:54:31;7.70;99.90
2571;DHT22;1295;51.130;6.732;2023-02-15T03:57:02;7.90;99.90
2571;DHT22;1295;51.130;6.732;2023-02-15T03:59:35;7.80;99.90
2571;DHT22;1295;51.130;6.732;2023-02-15T04:02:11;7.80;99.90
2571;DHT22;1295;51.130;6.732;2023-02-15T04:04:37;8.00;99.90
2571;DHT22;1295;51.130;6.732;2023-02-15T04:07:02;7.90;99.90
2571;DHT22;1295;51.130;6.732;2023-02-15T04:09:32;8.00;99.90
2571;DHT22;1295;51.130;6.732;2023-02-15T04:12:10;8.10;99.90
2571;DHT22;1295;51.130;6.732;2023-02-15T04:14:35;8.10;99.90
2571;DHT22;1295;51.130;6.732;2023-02-15T04:17:08;8.10;99.90
2571;DHT22;1295;51.130;6.732;2023-02-15T04:19:34;8.10;99.90
2571;DHT22;1295;51.130;6.732;2023-02-15T04:22:06;8.00;99.90
2571;DHT22;1295;51.130;6.732;2023-02-15T04:24:38;8.10;99.90
2571;DHT22;1295;51.130;6.732;2023-02-15T04:27:09;7.50;99.90
2571;DHT22;1295;51.130;6.732;2023-02-15T04:29:35;7.80;99.90
2571;DHT22;1295;51.130;6.732;2023-02-15T04:32:01;8.00;99.90
2571;DHT22;1295;51.130;6.732;2023-02-15T04:34:27;7.70;99.90
2571;DHT22;1295;51.130;6.732;2023-02-15T04:36:58;7.70;99.90
2571;DHT22;1295;51.130;6.732;2023-02-15T04:39:23;7.80;99.90
2571;DHT22;1295;51.130;6.732;2023-02-15T04:41:49;7.60;99.90
2571;DHT22;1295;51.130;6.732;2023-02-15T04:44:15;7.60;99.90
2571;DHT22;1295;51.130;6.732;2023-02-15T04:46:40;7.60;99.90
2571;DHT22;1295;51.130;6.732;2023-02-15T04:49:07;7.70;99.90
2571;DHT22;1295;51.130;6.732;2023-02-15T04:51:31;7.70;99.90
2571;DHT22;1295;51.130;6.732;2023-02-15T04:53:57;7.50;99.90
2571;DHT22;1295;51.130;6.732;2023-02-15T04:56:33;7.60;99.90
2571;DHT22;1295;51.130;6.732;2023-02-15T04:58:59;7.60;99.90
2571;DHT22;1295;51.130;6.732;2023-02-15T05:01:25;7.80;99.90
2571;DHT22;1295;51.130;6.732;2023-02-15T05:03:50;7.80;99.90
2571;DHT22;1295;51.130;6.732;2023-02-15T05:06:16;7.80;99.90
2571;DHT22;1295;51.130;6.732;2023-02-15T05:08:42;7.70;99.90
2571;DHT22;1295;51.130;6.732;2023-02-15T05:11:08;7.70;99.90
2571;DHT22;1295;51.130;6.732;2023-02-15T05:13:34;7.20;99.90
2571;DHT22;1295;51.130;6.732;2023-02-15T05:15:59;7.50;99.90
2571;DHT22;1295;51.130;6.732;2023-02-15T05:18:25;7.40;99.90
2571;DHT22;1295;51.130;6.732;2023-02-15T05:20:50;7.40;99.90
2571;DHT22;1295;51.130;6.732;2023-02-15T05:23:16;7.50;99.90
2571;DHT22;1295;51.130;6.732;2023-02-15T05:25:46;7.60;99.90
2571;DHT22;1295;51.130;6.732;2023-02-15T05:28:14;7.50;99.90
2571;DHT22;1295;51.130;6.732;2023-02-15T05:30:49;7.40;99.90
2571;DHT22;1295;51.130;6.732;2023-02-15T05:33:13;7.10;99.90
2571;DHT22;1295;51.130;6.732;2023-02-15T05:35:39;7.30;99.90
2571;DHT22;1295;51.130;6.732;2023-02-15T05:38:05;7.30;99.90
2571;DHT22;1295;51.130;6.732;2023-02-15T05:40:31;7.30;99.90
2571;DHT22;1295;51.130;6.732;2023-02-15T05:42:56;7.40;99.90
2571;DHT22;1295;51.130;6.732;2023-02-15T05:45:22;7.20;99.90
2571;DHT22;1295;51.130;6.732;2023-02-15T05:47:48;6.90;99.90
2571;DHT22;1295;51.130;6.732;2023-02-15T05:50:13;7.30;99.90
2571;DHT22;1295;51.130;6.732;2023-02-15T05:52:39;7.40;99.90
2571;DHT22;1295;51.130;6.732;2023-02-15T05:55:06;7.30;99.90
2571;DHT22;1295;51.130;6.732;2023-02-15T05:57:31;7.20;99.90
2571;DHT22;1295;51.130;6.732;2023-02-15T05:59:57;6.90;99.90
2571;DHT22;1295;51.130;6.732;2023-02-15T06:02:22;7.30;99.90
2571;DHT22;1295;51.130;6.732;2023-02-15T06:04:48;7.10;99.90
2571;DHT22;1295;51.130;6.732;2023-02-15T06:07:14;6.50;99.90
2571;DHT22;1295;51.130;6.732;2023-02-15T06:09:39;6.80;99.90
2571;DHT22;1295;51.130;6.732;2023-02-15T06:12:05;7.00;99.90
2571;DHT22;1295;51.130;6.732;2023-02-15T06:14:31;7.20;99.90
2571;DHT22;1295;51.130;6.732;2023-02-15T06:16:57;7.20;99.90
2571;DHT22;1295;51.130;6.732;2023-02-15T06:19:23;7.10;99.90
2571;DHT22;1295;51.130;6.732;2023-02-15T06:21:48;7.00;99.90
2571;DHT22;1295;51.130;6.732;2023-02-15T06:24:14;7.30;99.90
2571;DHT22;1295;51.130;6.732;2023-02-15T06:26:39;7.30;99.90
2571;DHT22;1295;51.130;6.732;2023-02-15T06:29:05;7.30;99.90
2571;DHT22;1295;51.130;6.732;2023-02-15T06:31:31;7.20;99.90
2571;DHT22;1295;51.130;6.732;2023-02-15T06:33:57;7.00;99.90
2571;DHT22;1295;51.130;6.732;2023-02-15T06:36:23;6.90;99.90
2571;DHT22;1295;51.130;6.732;2023-02-15T06:38:48;7.10;99.90
2571;DHT22;1295;51.130;6.732;2023-02-15T06:41:14;7.30;99.90
2571;DHT22;1295;51.130;6.732;2023-02-15T06:43:39;7.30;99.90
2571;DHT22;1295;51.130;6.732;2023-02-15T06:46:05;6.50;99.90
2571;DHT22;1295;51.130;6.732;2023-02-15T06:48:31;7.10;99.90
2571;DHT22;1295;51.130;6.732;2023-02-15T06:51:03;7.20;99.90
2571;DHT22;1295;51.130;6.732;2023-02-15T06:53:33;7.20;99.90
2571;DHT22;1295;51.130;6.732;2023-02-15T06:56:01;7.30;99.90
2571;DHT22;1295;51.130;6.732;2023-02-15T06:58:26;7.10;99.90
2571;DHT22;1295;51.130;6.732;2023-02-15T07:00:52;6.90;99.90
2571;DHT22;1295;51.130;6.732;2023-02-15T07:03:18;6.90;99.90
2571;DHT22;1295;51.130;6.732;2023-02-15T07:05:43;6.60;99.90
2571;DHT22;1295;51.130;6.732;2023-02-15T07:08:09;6.80;99.90
2571;DHT22;1295;51.130;6.732;2023-02-15T07:10:34;6.50;99.90
2571;DHT22;1295;51.130;6.732;2023-02-15T07:13:00;6.80;99.90
2571;DHT22;1295;51.130;6.732;2023-02-15T07:15:26;6.70;99.90
2571;DHT22;1295;51.130;6.732;2023-02-15T07:17:51;6.60;99.90
2571;DHT22;1295;51.130;6.732;2023-02-15T07:20:20;6.70;99.90
2571;DHT22;1295;51.130;6.732;2023-02-15T07:22:44;6.70;99.90
2571;DHT22;1295;51.130;6.732;2023-02-15T07:25:11;5.80;99.90
2571;DHT22;1295;51.130;6.732;2023-02-15T07:27:36;6.30;99.90
2571;DHT22;1295;51.130;6.732;2023-02-15T07:30:02;6.80;99.90
2571;DHT22;1295;51.130;6.732;2023-02-15T07:32:28;6.60;99.90
2571;DHT22;1295;51.130;6.732;2023-02-15T07:34:53;6.60;99.90
2571;DHT22;1295;51.130;6.732;2023-02-15T07:37:19;6.00;99.90
2571;DHT22;1295;51.130;6.732;2023-02-15T07:39:45;6.50;99.90
2571;DHT22;1295;51.130;6.732;2023-02-15T07:42:10;6.80;99.90
2571;DHT22;1295;51.130;6.732;2023-02-15T07:44:36;6.70;99.90
2571;DHT22;1295;51.130;6.732;2023-02-15T07:47:02;6.10;99.90
2571;DHT22;1295;51.130;6.732;2023-02-15T07:49:27;6.70;99.90
2571;DHT22;1295;51.130;6.732;2023-02-15T07:51:53;6.60;99.90
2571;DHT22;1295;51.130;6.732;2023-02-15T07:54:19;6.70;99.90
2571;DHT22;1295;51.130;6.732;2023-02-15T07:56:45;6.70;99.90
2571;DHT22;1295;51.130;6.732;2023-02-15T07:59:11;6.20;99.90
2571;DHT22;1295;51.130;6.732;2023-02-15T08:01:37;6.60;99.90
2571;DHT22;1295;51.130;6.732;2023-02-15T08:04:03;6.60;99.90
2571;DHT22;1295;51.130;6.732;2023-02-15T08:06:29;6.60;99.90
2571;DHT22;1295;51.130;6.732;2023-02-15T08:08:53;6.50;99.90
2571;DHT22;1295;51.130;6.732;2023-02-15T08:11:24;6.50;99.90
2571;DHT22;1295;51.130;6.732;2023-02-15T08:13:53;6.10;99.90
2571;DHT22;1295;51.130;6.732;2023-02-15T08:16:20;6.50;99.90
2571;DHT22;1295;51.130;6.732;2023-02-15T08:18:45;6.50;99.90
2571;DHT22;1295;51.130;6.732;2023-02-15T08:21:11;6.50;99.90
2571;DHT22;1295;51.130;6.732;2023-02-15T08:23:36;6.60;99.90
2571;DHT22;1295;51.130;6.732;2023-02-15T08:26:02;6.70;99.90
2571;DHT22;1295;51.130;6.732;2023-02-15T08:28:28;6.60;99.90
2571;DHT22;1295;51.130;6.732;2023-02-15T08:30:53;6.80;99.90
2571;DHT22;1295;51.130;6.732;2023-02-15T08:33:19;6.80;99.90
2571;DHT22;1295;51.130;6.732;2023-02-15T08:35:45;7.00;99.90
2571;DHT22;1295;51.130;6.732;2023-02-15T08:38:10;6.90;99.90
2571;DHT22;1295;51.130;6.732;2023-02-15T08:40:36;6.90;99.90
2571;DHT22;1295;51.130;6.732;2023-02-15T08:43:03;7.30;99.90
2571;DHT22;1295;51.130;6.732;2023-02-15T08:45:28;7.20;99.90
2571;DHT22;1295;51.130;6.732;2023-02-15T08:47:54;7.50;99.90
2571;DHT22;1295;51.130;6.732;2023-02-15T08:50:20;7.50;99.90
2571;DHT22;1295;51.130;6.732;2023-02-15T08:52:47;7.60;99.90
2571;DHT22;1295;51.130;6.732;2023-02-15T08:55:12;7.60;99.90
2571;DHT22;1295;51.130;6.732;2023-02-15T08:57:38;7.70;99.90
2571;DHT22;1295;51.130;6.732;2023-02-15T09:00:05;7.90;99.90
2571;DHT22;1295;51.130;6.732;2023-02-15T09:02:31;7.90;99.90
2571;DHT22;1295;51.130;6.732;2023-02-15T09:04:56;7.90;99.90
2571;DHT22;1295;51.130;6.732;2023-02-15T09:07:22;7.70;99.90
2571;DHT22;1295;51.130;6.732;2023-02-15T09:09:47;8.00;99.90
2571;DHT22;1295;51.130;6.732;2023-02-15T09:12:13;8.20;99.90
2571;DHT22;1295;51.130;6.732;2023-02-15T09:14:39;8.30;99.90
2571;DHT22;1295;51.130;6.732;2023-02-15T09:17:04;8.40;99.90
2571;DHT22;1295;51.130;6.732;2023-02-15T09:19:30;8.40;99.90
2571;DHT22;1295;51.130;6.732;2023-02-15T09:21:55;8.30;99.90
2571;DHT22;1295;51.130;6.732;2023-02-15T09:24:21;8.40;99.90
2571;DHT22;1295;51.130;6.732;2023-02-15T09:26:48;8.40;99.90
2571;DHT22;1295;51.130;6.732;2023-02-15T09:29:13;8.70;99.90
2571;DHT22;1295;51.130;6.732;2023-02-15T09:31:41;8.90;99.90
2571;DHT22;1295;51.130;6.732;2023-02-15T09:34:05;9.20;99.90
2571;DHT22;1295;51.130;6.732;2023-02-15T09:36:33;8.70;99.90
2571;DHT22;1295;51.130;6.732;2023-02-15T09:39:09;8.50;99.90
2571;DHT22;1295;51.130;6.732;2023-02-15T09:41:54;8.50;99.90
2571;DHT22;1295;51.130;6.732;2023-02-15T09:44:28;8.50;99.90
2571;DHT22;1295;51.130;6.732;2023-02-15T09:49:50;8.50;99.90
2571;DHT22;1295;51.130;6.732;2023-02-15T09:52:32;8.80;99.90
2571;DHT22;1295;51.130;6.732;2023-02-15T09:55:02;8.60;99.90
2571;DHT22;1295;51.130;6.732;2023-02-15T10:03:04;8.90;99.90
2571;DHT22;1295;51.130;6.732;2023-02-15T10:05:38;8.70;99.90
2571;DHT22;1295;51.130;6.732;2023-02-15T10:10:37;9.40;99.90
2571;DHT22;1295;51.130;6.732;2023-02-15T10:13:04;8.90;99.90
2571;DHT22;1295;51.130;6.732;2023-02-15T10:15:51;9.20;99.90
2571;DHT22;1295;51.130;6.732;2023-02-15T10:18:20;8.70;99.90
2571;DHT22;1295;51.130;6.732;2023-02-15T10:20:53;8.80;99.90
2571;DHT22;1295;51.130;6.732;2023-02-15T10:23:41;8.60;99.90
2571;DHT22;1295;51.130;6.732;2023-02-15T10:26:28;8.60;99.90
2571;DHT22;1295;51.130;6.732;2023-02-15T10:28:57;9.20;99.90
2571;DHT22;1295;51.130;6.732;2023-02-15T10:31:26;9.20;99.90
2571;DHT22;1295;51.130;6.732;2023-02-15T10:36:32;9.10;99.90
2571;DHT22;1295;51.130;6.732;2023-02-15T10:39:06;8.90;99.90
2571;DHT22;1295;51.130;6.732;2023-02-15T10:44:35;8.70;99.90
2571;DHT22;1295;51.130;6.732;2023-02-15T10:47:24;9.70;99.90
2571;DHT22;1295;51.130;6.732;2023-02-15T10:52:39;9.40;99.90
2571;DHT22;1295;51.130;6.732;2023-02-15T10:55:05;9.70;99.90
2571;DHT22;1295;51.130;6.732;2023-02-15T10:57:49;9.90;99.90
2571;DHT22;1295;51.130;6.732;2023-02-15T11:05:58;10.20;99.90
2571;DHT22;1295;51.130;6.732;2023-02-15T11:08:21;10.20;99.90
2571;DHT22;1295;51.130;6.732;2023-02-15T11:10:51;10.20;99.90
2571;DHT22;1295;51.130;6.732;2023-02-15T11:13:16;9.90;99.90
2571;DHT22;1295;51.130;6.732;2023-02-15T11:16:01;10.40;99.90
2571;DHT22;1295;51.130;6.732;2023-02-15T11:18:32;10.30;99.90
2571;DHT22;1295;51.130;6.732;2023-02-15T11:20:57;9.70;99.90
2571;DHT22;1295;51.130;6.732;2023-02-15T11:23:21;9.50;99.90
2571;DHT22;1295;51.130;6.732;2023-02-15T11:25:52;10.10;99.90
2571;DHT22;1295;51.130;6.732;2023-02-15T11:28:17;9.90;99.90
2571;DHT22;1295;51.130;6.732;2023-02-15T11:30:49;9.90;99.90
2571;DHT22;1295;51.130;6.732;2023-02-15T11:33:16;10.10;99.90
2571;DHT22;1295;51.130;6.732;2023-02-15T11:35:42;9.60;99.90
2571;DHT22;1295;51.130;6.732;2023-02-15T11:38:12;10.10;99.90
2571;DHT22;1295;51.130;6.732;2023-02-15T11:40:41;10.10;99.90
2571;DHT22;1295;51.130;6.732;2023-02-15T11:43:04;9.80;99.90
2571;DHT22;1295;51.130;6.732;2023-02-15T11:45:29;10.00;99.90
2571;DHT22;1295;51.130;6.732;2023-02-15T11:47:55;10.00;99.90
2571;DHT22;1295;51.130;6.732;2023-02-15T11:50:23;10.00;99.90
2571;DHT22;1295;51.130;6.732;2023-02-15T11:52:50;10.70;99.90
2571;DHT22;1295;51.130;6.732;2023-02-15T11:55:18;10.70;99.90
2571;DHT22;1295;51.130;6.732;2023-02-15T11:57:42;11.20;99.90
2571;DHT22;1295;51.130;6.732;2023-02-15T12:00:20;11.10;99.90
2571;DHT22;1295;51.130;6.732;2023-02-15T12:02:45;11.40;99.90
2571;DHT22;1295;51.130;6.732;2023-02-15T12:05:11;10.50;99.90
2571;DHT22;1295;51.130;6.732;2023-02-15T12:07:37;10.00;99.90
2571;DHT22;1295;51.130;6.732;2023-02-15T12:10:04;10.50;99.90
2571;DHT22;1295;51.130;6.732;2023-02-15T12:12:29;11.40;99.90
2571;DHT22;1295;51.130;6.732;2023-02-15T12:14:54;10.50;99.90
2571;DHT22;1295;51.130;6.732;2023-02-15T12:17:21;11.10;99.90
2571;DHT22;1295;51.130;6.732;2023-02-15T12:19:46;10.40;99.90
2571;DHT22;1295;51.130;6.732;2023-02-15T12:22:20;10.80;99.90
2571;DHT22;1295;51.130;6.732;2023-02-15T12:24:44;10.50;99.90
2571;DHT22;1295;51.130;6.732;2023-02-15T12:27:16;11.40;99.90
2571;DHT22;1295;51.130;6.732;2023-02-15T12:29:42;12.10;99.90
2571;DHT22;1295;51.130;6.732;2023-02-15T12:32:09;11.80;99.90
2571;DHT22;1295;51.130;6.732;2023-02-15T12:34:35;11.10;99.90
2571;DHT22;1295;51.130;6.732;2023-02-15T12:37:01;11.00;99.90
2571;DHT22;1295;51.130;6.732;2023-02-15T12:39:27;11.10;99.90
2571;DHT22;1295;51.130;6.732;2023-02-15T12:42:04;11.10;99.90
2571;DHT22;1295;51.130;6.732;2023-02-15T12:44:31;11.10;99.90
2571;DHT22;1295;51.130;6.732;2023-02-15T12:46:57;10.50;99.90
2571;DHT22;1295;51.130;6.732;2023-02-15T12:49:22;11.60;99.90
2571;DHT22;1295;51.130;6.732;2023-02-15T12:51:49;11.50;99.90
2571;DHT22;1295;51.130;6.732;2023-02-15T12:54:37;11.70;99.90
2571;DHT22;1295;51.130;6.732;2023-02-15T12:57:13;10.90;99.90
2571;DHT22;1295;51.130;6.732;2023-02-15T12:59:47;11.60;99.90
2571;DHT22;1295;51.130;6.732;2023-02-15T13:02:05;11.60;99.90
2571;DHT22;1295;51.130;6.732;2023-02-15T13:07:21;12.70;99.90
2571;DHT22;1295;51.130;6.732;2023-02-15T13:09:48;12.30;99.90
2571;DHT22;1295;51.130;6.732;2023-02-15T13:12:21;12.30;99.90
2571;DHT22;1295;51.130;6.732;2023-02-15T13:14:47;13.00;99.90
2571;DHT22;1295;51.130;6.732;2023-02-15T13:17:12;13.30;99.90
2571;DHT22;1295;51.130;6.732;2023-02-15T13:19:44;11.70;99.90
2571;DHT22;1295;51.130;6.732;2023-02-15T13:22:11;11.70;99.90
2571;DHT22;1295;51.130;6.732;2023-02-15T13:24:37;12.30;99.90
2571;DHT22;1295;51.130;6.732;2023-02-15T13:27:01;11.60;99.90
2571;DHT22;1295;51.130;6.732;2023-02-15T13:29:28;11.70;99.90
2571;DHT22;1295;51.130;6.732;2023-02-15T13:31:53;11.50;99.90
2571;DHT22;1295;51.130;6.732;2023-02-15T13:34:38;12.00;99.90
2571;DHT22;1295;51.130;6.732;2023-02-15T13:37:10;13.00;99.90
2571;DHT22;1295;51.130;6.732;2023-02-15T13:39:40;13.10;99.90
2571;DHT22;1295;51.130;6.732;2023-02-15T13:42:14;11.60;99.90
2571;DHT22;1295;51.130;6.732;2023-02-15T13:44:54;13.70;99.90
2571;DHT22;1295;51.130;6.732;2023-02-15T13:47:37;11.80;99.90
2571;DHT22;1295;51.130;6.732;2023-02-15T13:55:50;12.60;99.90
2571;DHT22;1295;51.130;6.732;2023-02-15T13:58:25;12.20;99.90
2571;DHT22;1295;51.130;6.732;2023-02-15T14:01:02;13.40;99.90
2571;DHT22;1295;51.130;6.732;2023-02-15T14:06:29;16.00;99.90
2571;DHT22;1295;51.130;6.732;2023-02-15T14:09:09;14.20;99.90
2571;DHT22;1295;51.130;6.732;2023-02-15T14:14:27;14.60;99.90
2571;DHT22;1295;51.130;6.732;2023-02-15T14:19:39;14.20;99.90
2571;DHT22;1295;51.130;6.732;2023-02-15T14:23:16;14.10;99.90
2571;DHT22;1295;51.130;6.732;2023-02-15T14:24:58;12.60;99.90
2571;DHT22;1295;51.130;6.732;2023-02-15T14:28:49;12.10;99.90
2571;DHT22;1295;51.130;6.732;2023-02-15T14:30:22;11.50;99.90
2571;DHT22;1295;51.130;6.732;2023-02-15T14:32:47;11.70;99.90
2571;DHT22;1295;51.130;6.732;2023-02-15T14:35:13;13.40;99.90
2571;DHT22;1295;51.130;6.732;2023-02-15T14:37:49;14.10;99.90
2571;DHT22;1295;51.130;6.732;2023-02-15T14:43:07;11.70;99.90
2571;DHT22;1295;51.130;6.732;2023-02-15T14:45:35;11.70;99.90
2571;DHT22;1295;51.130;6.732;2023-02-15T14:48:04;12.90;99.90
2571;DHT22;1295;51.130;6.732;2023-02-15T14:50:39;13.30;99.90
2571;DHT22;1295;51.130;6.732;2023-02-15T14:53:16;14.50;99.90
2571;DHT22;1295;51.130;6.732;2023-02-15T14:55:40;13.80;99.90
2571;DHT22;1295;51.130;6.732;2023-02-15T14:58:10;13.00;99.90
2571;DHT22;1295;51.130;6.732;2023-02-15T15:00:36;13.00;99.90
2571;DHT22;1295;51.130;6.732;2023-02-15T15:02:59;13.40;99.90
2571;DHT22;1295;51.130;6.732;2023-02-15T15:05:32;13.30;99.90
2571;DHT22;1295;51.130;6.732;2023-02-15T15:07:54;13.30;99.90
2571;DHT22;1295;51.130;6.732;2023-02-15T15:10:35;13.70;99.90
2571;DHT22;1295;51.130;6.732;2023-02-15T15:13:00;13.60;99.90
2571;DHT22;1295;51.130;6.732;2023-02-15T15:18:09;13.10;99.90
2571;DHT22;1295;51.130;6.732;2023-02-15T15:20:40;13.10;99.90
2571;DHT22;1295;51.130;6.732;2023-02-15T15:25:56;12.90;99.90
2571;DHT22;1295;51.130;6.732;2023-02-15T15:28:52;12.80;99.90
2571;DHT22;1295;51.130;6.732;2023-02-15T15:31:08;12.80;99.90
2571;DHT22;1295;51.130;6.732;2023-02-15T15:33:39;12.90;99.90
2571;DHT22;1295;51.130;6.732;2023-02-15T15:36:19;12.20;99.90
2571;DHT22;1295;51.130;6.732;2023-02-15T15:39:05;12.20;99.90
2571;DHT22;1295;51.130;6.732;2023-02-15T15:41:40;12.50;99.90
2571;DHT22;1295;51.130;6.732;2023-02-15T15:49:37;12.10;99.90
2571;DHT22;1295;51.130;6.732;2023-02-15T15:52:12;12.30;99.90
2571;DHT22;1295;51.130;6.732;2023-02-15T15:54:35;12.50;99.90
2571;DHT22;1295;51.130;6.732;2023-02-15T15:57:04;12.50;99.90
2571;DHT22;1295;51.130;6.732;2023-02-15T15:59:27;12.30;99.90
2571;DHT22;1295;51.130;6.732;2023-02-15T16:01:51;11.80;99.90
2571;DHT22;1295;51.130;6.732;2023-02-15T16:04:22;11.50;99.90
2571;DHT22;1295;51.130;6.732;2023-02-15T16:06:48;11.50;99.90
2571;DHT22;1295;51.130;6.732;2023-02-15T16:09:21;11.50;99.90
2571;DHT22;1295;51.130;6.732;2023-02-15T16:11:49;11.70;99.90
2571;DHT22;1295;51.130;6.732;2023-02-15T16:14:15;11.60;99.90
2571;DHT22;1295;51.130;6.732;2023-02-15T16:16:39;11.40;99.90
2571;DHT22;1295;51.130;6.732;2023-02-15T16:19:06;11.30;99.90
2571;DHT22;1295;51.130;6.732;2023-02-15T16:21:33;11.30;99.90
2571;DHT22;1295;51.130;6.732;2023-02-15T16:27:00;11.40;99.90
2571;DHT22;1295;51.130;6.732;2023-02-15T16:29:29;11.30;99.90
2571;DHT22;1295;51.130;6.732;2023-02-15T16:32:00;11.30;99.90
2571;DHT22;1295;51.130;6.732;2023-02-15T16:34:25;11.20;99.90
2571;DHT22;1295;51.130;6.732;2023-02-15T16:36:50;11.10;99.90
2571;DHT22;1295;51.130;6.732;2023-02-15T16:39:17;11.10;99.90
2571;DHT22;1295;51.130;6.732;2023-02-15T16:41:41;11.00;99.90
2571;DHT22;1295;51.130;6.732;2023-02-15T16:44:12;10.90;99.90
2571;DHT22;1295;51.130;6.732;2023-02-15T16:46:36;10.90;99.90
2571;DHT22;1295;51.130;6.732;2023-02-15T16:49:03;10.90;99.90
2571;DHT22;1295;51.130;6.732;2023-02-15T16:51:29;10.90;99.90
2571;DHT22;1295;51.130;6.732;2023-02-15T16:53:53;10.90;99.90
2571;DHT22;1295;51.130;6.732;2023-02-15T16:56:24;10.90;99.90
2571;DHT22;1295;51.130;6.732;2023-02-15T16:58:49;11.00;99.90
2571;DHT22;1295;51.130;6.732;2023-02-15T17:01:15;10.90;99.90
2571;DHT22;1295;51.130;6.732;2023-02-15T17:03:40;10.80;99.90
2571;DHT22;1295;51.130;6.732;2023-02-15T17:08:43;10.70;99.90
2571;DHT22;1295;51.130;6.732;2023-02-15T17:11:14;10.70;99.90
2571;DHT22;1295;51.130;6.732;2023-02-15T17:13:39;10.60;99.90
2571;DHT22;1295;51.130;6.732;2023-02-15T17:16:18;10.70;99.90
2571;DHT22;1295;51.130;6.732;2023-02-15T17:18:38;10.70;99.90
2571;DHT22;1295;51.130;6.732;2023-02-15T17:21:00;10.70;99.90
2571;DHT22;1295;51.130;6.732;2023-02-15T17:23:30;10.60;99.90